createdAt,value
2019-04-28T00:03:00.770Z,11.17
2019-04-28T00:08:05.282Z,11.05
2019-04-28T00:13:10.953Z,11.06
2019-04-28T00:18:15.361Z,11.31
2019-04-28T00:23:33.577Z,11.25
2019-04-28T00:28:37.936Z,11.21
2019-04-28T00:33:43.584Z,11.32
2019-04-28T00:38:48.166Z,10.92
2019-04-28T00:43:52.515Z,11.01
2019-04-28T00:48:56.869Z,11.30
2019-04-28T00:54:01.241Z,11.55
2019-04-28T00:59:05.601Z,11.72
2019-04-28T01:04:11.754Z,11.35
2019-04-28T01:09:17.131Z,11.29
2019-04-28T01:14:21.537Z,11.09
2019-04-28T01:19:27.515Z,11.25
2019-04-28T01:24:31.877Z,11.24
2019-04-28T01:29:36.344Z,11.26
2019-04-28T01:34:40.706Z,11.26
2019-04-28T01:39:45.110Z,10.74
2019-04-28T01:44:49.581Z,10.93
2019-04-28T01:49:54.076Z,10.94
2019-04-28T01:55:00.303Z,11.41
2019-04-28T02:00:20.032Z,10.87
2019-04-28T02:05:14.740Z,10.91
2019-04-28T02:10:20.205Z,10.82
2019-04-28T02:15:25.183Z,10.73
2019-04-28T02:20:30.134Z,10.99
2019-04-28T02:25:34.713Z,10.84
2019-04-28T02:30:47.783Z,10.62
2019-04-28T02:35:45.102Z,10.69
2019-04-28T02:40:50.357Z,10.52
2019-04-28T02:45:55.070Z,10.74
2019-04-28T02:51:01.353Z,10.66
2019-04-28T02:56:06.821Z,10.34
2019-04-28T03:01:21.874Z,10.40
2019-04-28T03:06:17.433Z,10.32
2019-04-28T03:11:22.915Z,10.42
2019-04-28T03:16:27.305Z,10.32
2019-04-28T03:21:31.649Z,10.32
2019-04-28T03:26:41.343Z,10.42
2019-04-28T03:32:16.138Z,10.50
2019-04-28T03:37:00.206Z,10.41
2019-04-28T03:42:04.145Z,10.60
2019-04-28T03:47:10.604Z,10.17
2019-04-28T03:52:14.574Z,10.22
2019-04-28T03:57:21.484Z,10.17
2019-04-28T04:02:25.021Z,10.21
2019-04-28T04:07:31.086Z,10.24
2019-04-28T04:12:41.266Z,10.51
2019-04-28T04:18:05.686Z,10.46
2019-04-28T04:23:11.280Z,10.44
2019-04-28T04:28:15.869Z,10.53
2019-04-28T04:33:21.001Z,10.41
2019-04-28T04:38:25.505Z,10.62
2019-04-28T04:43:31.017Z,10.64
2019-04-28T04:48:36.568Z,10.78
2019-04-28T04:53:41.955Z,10.93
2019-04-28T04:58:46.333Z,11.00
2019-04-28T05:03:52.350Z,11.47
2019-04-28T05:08:56.691Z,11.25
2019-04-28T05:14:01.043Z,11.09
2019-04-28T05:19:05.404Z,11.20
2019-04-28T05:24:15.973Z,11.16
2019-04-28T05:29:21.773Z,11.57
2019-04-28T05:34:24.328Z,11.72
2019-04-28T05:39:29.796Z,11.50
2019-04-28T05:44:34.186Z,11.60
2019-04-28T05:49:40.340Z,11.18
2019-04-28T05:54:49.677Z,11.04
2019-04-28T06:00:14.308Z,11.12
2019-04-28T06:05:20.015Z,11.20
2019-04-28T06:10:24.604Z,10.95
2019-04-28T06:15:29.534Z,10.95
2019-04-28T06:20:34.257Z,11.06
2019-04-28T06:25:38.627Z,11.25
2019-04-28T06:30:43.000Z,11.50
2019-04-28T06:35:48.444Z,11.19
2019-04-28T06:40:52.884Z,11.09
2019-04-28T06:45:57.255Z,11.18
2019-04-28T06:51:01.601Z,11.51
2019-04-28T06:56:05.948Z,11.25
2019-04-28T07:01:10.322Z,11.51
2019-04-28T07:06:14.697Z,11.26
2019-04-28T07:11:19.078Z,11.06
2019-04-28T07:16:23.413Z,11.19
2019-04-28T07:21:29.400Z,11.38
2019-04-28T07:26:33.945Z,11.35
2019-04-28T07:31:38.300Z,10.95
2019-04-28T07:36:42.688Z,11.07
2019-04-28T07:41:47.011Z,11.61
2019-04-28T07:46:51.406Z,11.73
2019-04-28T07:52:09.483Z,12.03
2019-04-28T07:57:13.923Z,11.98
2019-04-28T08:02:18.405Z,12.10
2019-04-28T08:07:22.827Z,12.15
2019-04-28T08:12:27.202Z,11.68
2019-04-28T08:17:32.654Z,11.83
2019-04-28T08:22:37.208Z,11.72
2019-04-28T08:27:42.628Z,12.66
2019-04-28T08:32:48.693Z,12.15
2019-04-28T08:37:53.049Z,12.44
2019-04-28T08:42:57.412Z,12.73
2019-04-28T08:48:01.793Z,12.72
2019-04-28T08:53:06.205Z,12.56
2019-04-28T08:58:10.553Z,13.08
2019-04-28T09:03:15.866Z,13.06
2019-04-28T09:08:21.292Z,13.19
2019-04-28T09:13:27.187Z,12.23
2019-04-28T09:18:31.952Z,13.04
2019-04-28T09:23:36.277Z,13.39
2019-04-28T09:28:40.761Z,12.75
2019-04-28T09:33:45.284Z,12.71
2019-04-28T09:38:50.239Z,12.20
2019-04-28T09:43:56.416Z,12.95
2019-04-28T09:49:00.812Z,12.52
2019-04-28T09:54:05.425Z,13.44
2019-04-28T09:59:09.760Z,12.84
2019-04-28T10:04:14.119Z,13.06
2019-04-28T10:09:18.610Z,13.67
2019-04-28T10:14:22.970Z,14.14
2019-04-28T10:19:27.350Z,14.01
2019-04-28T10:24:31.728Z,13.63
2019-04-28T10:29:36.124Z,13.76
2019-04-28T10:34:40.492Z,13.36
2019-04-28T10:40:02.114Z,13.11
2019-04-28T10:45:08.427Z,13.11
2019-04-28T10:50:12.835Z,12.50
2019-04-28T10:55:17.187Z,12.53
2019-04-28T11:00:23.359Z,12.85
2019-04-28T11:05:38.104Z,12.91
2019-04-28T11:10:42.613Z,13.36
2019-04-28T11:15:47.015Z,13.37
2019-04-28T11:20:51.361Z,13.11
2019-04-28T11:25:55.832Z,13.22
2019-04-28T11:31:00.205Z,12.76
2019-04-28T11:36:05.741Z,12.28
2019-04-28T11:41:11.687Z,12.78
2019-04-28T11:46:17.774Z,12.68
2019-04-28T11:51:22.157Z,12.79
2019-04-28T11:56:26.560Z,13.23
2019-04-28T12:01:30.924Z,13.58
2019-04-28T12:06:35.432Z,13.25
2019-04-28T12:11:41.416Z,13.57
2019-04-28T12:17:03.621Z,13.20
2019-04-28T12:22:09.240Z,13.90
2019-04-28T12:27:13.642Z,13.95
2019-04-28T12:32:18.020Z,13.94
2019-04-28T12:37:22.394Z,13.28
2019-04-28T12:42:26.780Z,13.33
2019-04-28T12:47:31.172Z,13.58
2019-04-28T12:52:35.675Z,13.58
2019-04-28T12:57:40.036Z,13.04
2019-04-28T13:03:01.102Z,13.75
2019-04-28T13:08:05.536Z,13.59
2019-04-28T13:13:09.890Z,13.89
2019-04-28T13:18:14.275Z,14.15
2019-04-28T13:23:18.664Z,13.58
2019-04-28T13:28:23.000Z,13.95
2019-04-28T13:33:27.483Z,13.66
2019-04-28T13:38:31.886Z,13.84
2019-04-28T13:43:36.378Z,13.88
2019-04-28T13:48:40.750Z,14.13
2019-04-28T13:53:45.196Z,14.25
2019-04-28T13:58:51.209Z,14.75
2019-04-28T14:04:12.736Z,14.62
2019-04-28T14:09:17.081Z,14.25
2019-04-28T14:14:21.489Z,15.39
2019-04-28T14:19:25.912Z,14.37
2019-04-28T14:24:30.338Z,14.61
2019-04-28T14:29:34.747Z,14.72
2019-04-28T14:34:39.113Z,14.23
2019-04-28T14:39:43.493Z,14.67
2019-04-28T14:44:47.898Z,14.71
2019-04-28T14:49:52.265Z,14.50
2019-04-28T14:54:56.643Z,14.59
2019-04-28T15:00:01.005Z,14.76
2019-04-28T15:05:14.506Z,14.52
2019-04-28T15:10:23.175Z,14.78
2019-04-28T15:15:27.659Z,14.34
2019-04-28T15:20:32.012Z,14.95
2019-04-28T15:25:36.370Z,14.55
2019-04-28T15:30:40.724Z,14.45
2019-04-28T15:35:45.161Z,14.38
2019-04-28T15:40:49.600Z,14.37
2019-04-28T15:45:53.967Z,14.60
2019-04-28T15:50:58.360Z,14.53
2019-04-28T15:56:04.881Z,14.33
2019-04-28T16:01:09.426Z,14.36
2019-04-28T16:06:13.824Z,13.77
2019-04-28T16:11:18.265Z,13.59
2019-04-28T16:16:22.774Z,13.68
2019-04-28T16:21:27.161Z,14.13
2019-04-28T16:26:32.623Z,13.79
2019-04-28T16:31:37.036Z,14.04
2019-04-28T16:36:41.622Z,13.83
2019-04-28T16:41:45.965Z,13.93
2019-04-28T16:46:50.786Z,13.90
2019-04-28T16:51:55.429Z,14.24
2019-04-28T16:57:07.543Z,14.02
2019-04-28T17:02:19.414Z,13.78
2019-04-28T17:07:24.885Z,13.41
2019-04-28T17:12:29.272Z,13.35
2019-04-28T17:17:33.644Z,13.37
2019-04-28T17:22:38.043Z,13.34
2019-04-28T17:27:42.556Z,13.61
2019-04-28T17:32:47.194Z,13.54
2019-04-28T17:37:51.675Z,13.53
2019-04-28T17:42:56.029Z,13.23
2019-04-28T17:48:02.013Z,13.31
2019-04-28T17:53:07.440Z,13.16
2019-04-28T17:58:11.857Z,13.15
2019-04-28T18:03:23.823Z,13.15
2019-04-28T18:08:28.365Z,13.06
2019-04-28T18:13:32.723Z,12.90
2019-04-28T18:18:56.899Z,12.72
2019-04-28T18:24:01.333Z,12.95
2019-04-28T18:29:05.787Z,12.66
2019-04-28T18:34:11.822Z,12.83
2019-04-28T18:39:36.289Z,12.82
2019-04-28T18:44:40.700Z,12.74
2019-04-28T18:49:45.135Z,12.74
2019-04-28T18:54:49.512Z,12.74
2019-04-28T18:59:53.859Z,12.66
2019-04-28T19:04:59.267Z,12.48
2019-04-28T19:10:08.457Z,12.28
2019-04-28T19:15:23.990Z,12.30
2019-04-28T19:20:28.840Z,12.56
2019-04-28T19:25:35.300Z,12.23
2019-04-28T19:30:40.601Z,12.22
2019-04-28T19:35:44.965Z,11.94
2019-04-28T19:40:49.373Z,11.74
2019-04-28T19:45:56.594Z,11.71
2019-04-28T19:51:01.010Z,11.73
2019-04-28T19:56:07.091Z,11.89
2019-04-28T20:01:15.849Z,11.95
2019-04-28T20:06:20.237Z,11.85
2019-04-28T20:11:24.649Z,11.58
2019-04-28T20:16:29.047Z,11.75
2019-04-28T20:21:33.681Z,11.77
2019-04-28T20:26:38.334Z,11.47
2019-04-28T20:31:42.882Z,11.43
2019-04-28T20:36:51.694Z,11.73
2019-04-28T20:41:57.788Z,11.64
2019-04-28T20:47:02.191Z,11.76
2019-04-28T20:52:06.728Z,11.68
2019-04-28T20:57:11.117Z,11.78
2019-04-28T21:02:15.548Z,11.50
2019-04-28T21:07:20.005Z,11.25
2019-04-28T21:12:24.966Z,11.75
2019-04-28T21:17:29.364Z,11.34
2019-04-28T21:22:33.712Z,11.39
2019-04-28T21:27:38.110Z,11.53
2019-04-28T21:32:42.741Z,11.42
2019-04-28T21:37:47.119Z,11.23
2019-04-28T21:42:53.332Z,11.43
2019-04-28T21:47:57.813Z,11.37
2019-04-28T21:53:02.251Z,11.24
2019-04-28T21:58:06.722Z,11.36
2019-04-28T22:03:11.163Z,11.33
2019-04-28T22:08:15.584Z,11.22
2019-04-28T22:13:20.006Z,11.24
2019-04-28T22:18:25.447Z,11.16
2019-04-28T22:23:37.181Z,11.09
2019-04-28T22:28:41.550Z,10.93
2019-04-28T22:33:46.131Z,10.92
2019-04-28T22:38:50.490Z,11.03
2019-04-28T22:43:54.896Z,10.93
2019-04-28T22:49:00.902Z,10.88
2019-04-28T22:54:07.264Z,10.69
2019-04-28T22:59:22.351Z,10.84
2019-04-28T23:04:33.812Z,10.92
2019-04-28T23:09:38.251Z,10.82
2019-04-28T23:14:42.618Z,10.85
2019-04-28T23:19:47.084Z,10.80
2019-04-28T23:24:51.503Z,10.99
2019-04-28T23:29:55.856Z,11.03
2019-04-28T23:35:00.251Z,10.72
2019-04-28T23:40:06.169Z,10.59
2019-04-28T23:45:12.296Z,10.74
2019-04-28T23:50:18.554Z,10.87
2019-04-28T23:55:23.115Z,10.71
